Time;durP1;ratioP1;P1;durP2;ratioP2;P2;SDS_P1;SDS_P2;PMS_P1;PMS_P2;Temp;Humidity;BMP_temperature;BMP_pressure;BME280_temperature;BME280_humidity;BME280_pressure;Samples;Min_cycle;Max_cycle;Signal;HPM_P1;HPM_P2
2021/01/29 00:00:52;;;;;;;14.20;4.55;;;;;;;-2.92;77.94;99343.93;1682254;82;25849;-72
2021/01/29 00:03:20;;;;;;;13.88;4.00;;;;;;;-2.93;77.98;99342.19;1685099;83;25940;-72
2021/01/29 00:05:55;;;;;;;9.95;4.15;;;;;;;-2.93;78.01;99343.95;1682182;82;26304;-72
2021/01/29 00:08:24;;;;;;;10.53;4.08;;;;;;;-2.94;78.01;99347.01;1683060;82;25771;-72
2021/01/29 00:10:54;;;;;;;13.90;3.72;;;;;;;-2.97;78.02;99355.77;1685041;82;27473;-72
2021/01/29 00:13:25;;;;;;;13.28;3.45;;;;;;;-2.99;78.10;99352.30;1680987;82;25932;-72
2021/01/29 00:15:53;;;;;;;15.05;4.65;;;;;;;-3.00;78.12;99341.38;1687955;82;26452;-71
2021/01/29 00:18:22;;;;;;;12.28;4.42;;;;;;;-3.01;78.15;99346.20;1681083;82;26778;-72
2021/01/29 00:20:51;;;;;;;13.98;4.35;;;;;;;-3.03;78.20;99344.03;1692103;82;25891;-73
2021/01/29 00:23:20;;;;;;;15.78;4.12;;;;;;;-3.02;78.23;99343.59;1685537;82;27790;-72
2021/01/29 00:25:51;;;;;;;11.97;3.67;;;;;;;-3.04;78.30;99346.23;1683194;82;25883;-72
2021/01/29 00:28:21;;;;;;;;;;;;;;;-3.03;78.33;99344.03;1683598;82;26521;-72
2021/01/29 00:30:52;;;;;;;10.48;3.08;;;;;;;-3.05;78.37;99345.80;1683146;82;25824;-71
2021/01/29 00:33:24;;;;;;;17.82;4.37;;;;;;;-3.05;78.43;99343.63;1684470;82;25861;-71
2021/01/29 00:35:54;;;;;;;14.23;3.67;;;;;;;-3.07;78.43;99344.95;1692306;82;27201;-71
2021/01/29 00:38:22;;;;;;;12.07;3.52;;;;;;;-3.06;78.50;99343.20;1685642;82;25949;-72
2021/01/29 00:40:49;;;;;;;9.93;2.92;;;;;;;-3.04;78.50;99354.09;1681340;82;25902;-71
2021/01/29 00:43:17;;;;;;;15.60;4.37;;;;;;;-3.04;78.52;99346.23;1680027;82;26605;-71
2021/01/29 00:45:46;;;;;;;11.60;3.58;;;;;;;-3.05;78.53;99345.80;1681674;82;25937;-72
2021/01/29 00:48:14;;;;;;;11.65;3.90;;;;;;;-3.08;78.53;99341.90;1684553;83;27447;-71
2021/01/29 00:50:42;;;;;;;11.38;4.15;;;;;;;-3.05;78.55;99349.73;1683742;82;26603;-71
2021/01/29 00:53:10;;;;;;;12.50;3.08;;;;;;;-3.04;78.56;99366.33;1677612;83;25841;-71
2021/01/29 00:55:38;;;;;;;14.63;3.08;;;;;;;-3.02;78.59;99361.94;1685626;82;26527;-71
2021/01/29 00:58:05;;;;;;;12.33;3.85;;;;;;;-3.00;78.61;99354.94;1672021;82;25973;-71
2021/01/29 01:00:33;;;;;;;10.95;2.95;;;;;;;-3.02;78.63;99351.02;1669948;82;27973;-71
2021/01/29 01:03:01;;;;;;;8.08;3.35;;;;;;;-3.02;78.64;99340.97;1671862;84;26046;-71
2021/01/29 01:05:29;;;;;;;14.73;4.00;;;;;;;-3.05;78.65;99341.88;1685960;82;26092;-71
2021/01/29 01:07:57;;;;;;;12.40;3.65;;;;;;;-3.04;78.72;99344.92;1685507;83;26259;-72
2021/01/29 01:10:26;;;;;;;15.45;3.50;;;;;;;-3.02;78.73;99339.66;1673128;82;25999;-72
2021/01/29 01:12:54;;;;;;;9.93;3.52;;;;;;;-3.01;78.76;99335.72;1677168;82;26377;-71
2021/01/29 01:15:25;;;;;;;11.50;3.90;;;;;;;-3.00;78.79;99335.27;1691217;82;26462;-71
2021/01/29 01:17:58;;;;;;;9.50;3.33;;;;;;;-3.03;78.76;99333.99;1660434;84;25816;-71
2021/01/29 01:20:30;;;;;;;5.37;2.95;;;;;;;-3.03;78.77;99332.69;1679237;82;26218;-72
2021/01/29 01:22:57;;;;;;;10.43;3.15;;;;;;;-3.06;78.81;99336.20;1674226;84;25965;-71
2021/01/29 01:25:26;;;;;;;9.08;3.17;;;;;;;-3.07;78.82;99334.47;1673070;84;27909;-71
2021/01/29 01:27:55;;;;;;;6.95;2.70;;;;;;;-3.09;78.84;99337.54;1665020;82;26575;-71
2021/01/29 01:30:34;;;;;;;29.07;6.58;;;;;;;-3.10;78.87;99340.17;1672996;83;25942;-71
2021/01/29 01:33:03;;;;;;;15.78;3.22;;;;;;;-3.12;78.86;99342.81;1669551;84;26788;-72
2021/01/29 01:35:31;;;;;;;10.65;3.15;;;;;;;-3.13;78.87;99341.52;1671628;82;25916;-72
2021/01/29 01:38:02;;;;;;;8.63;3.83;;;;;;;-3.14;78.91;99331.47;1675104;82;27664;-72
2021/01/29 01:40:37;;;;;;;9.23;3.45;;;;;;;-3.15;78.94;99328.86;1678626;82;25934;-71
2021/01/29 01:43:06;;;;;;;11.53;3.30;;;;;;;-3.13;78.98;99329.72;1676340;82;25825;-71
2021/01/29 01:45:54;;;;;;;6.17;2.60;;;;;;;-3.15;78.97;99342.84;1669931;82;26624;-71
2021/01/29 01:48:41;;;;;;;12.53;3.62;;;;;;;-3.14;79.03;99334.09;1659841;84;26256;-71
2021/01/29 01:51:15;;;;;;;11.35;3.75;;;;;;;-3.14;79.07;99326.23;1671953;83;27952;-71
2021/01/29 01:53:47;;;;;;;9.58;2.70;;;;;;;-3.13;79.08;99321.42;1642367;83;25921;-74
2021/01/29 01:56:45;;;;;;;11.53;3.40;;;;;;;-3.11;79.10;99320.96;1678806;82;25762;-73
2021/01/29 01:59:21;;;;;;;18.15;3.40;;;;;;;-3.11;79.06;99317.47;1702526;82;26007;-70
2021/01/29 02:01:51;;;;;;;10.58;2.77;;;;;;;-3.11;79.13;99325.33;1678885;82;26105;-71
2021/01/29 02:04:24;;;;;;;9.78;3.35;;;;;;;-3.11;79.12;99325.33;1682892;82;27843;-71
2021/01/29 02:07:00;;;;;;;15.80;3.45;;;;;;;-3.12;79.12;99322.28;1669600;82;26004;-71
2021/01/29 02:09:29;;;;;;;11.20;3.15;;;;;;;-3.11;79.17;99327.95;1677767;82;25948;-71
2021/01/29 02:11:56;;;;;;;7.00;2.55;;;;;;;-3.12;79.17;99325.78;1659274;83;26234;-71
2021/01/29 02:14:24;;;;;;;10.55;3.02;;;;;;;-3.10;79.19;99327.07;1677494;82;26070;-71
2021/01/29 02:17:00;;;;;;;8.18;3.15;;;;;;;-3.12;79.20;99324.91;1675986;82;26147;-71
2021/01/29 02:19:40;;;;;;;9.15;3.27;;;;;;;-3.11;79.22;99317.03;1677175;82;25929;-71
2021/01/29 02:22:30;;;;;;;11.28;3.25;;;;;;;-3.09;79.22;99317.02;1683276;82;25933;-72
2021/01/29 02:25:27;;;;;;;7.92;3.35;;;;;;;-3.13;79.23;99321.42;1672902;83;26169;-71
2021/01/29 02:27:58;;;;;;;9.90;2.95;;;;;;;-3.15;79.27;99308.77;1659092;85;25865;-71
2021/01/29 02:30:48;;;;;;;6.12;2.33;;;;;;;-3.16;79.32;99310.97;1676221;84;27508;-71
2021/01/29 02:33:33;;;;;;;19.32;3.58;;;;;;;-3.15;79.35;99303.97;1680907;82;25948;-71
2021/01/29 02:36:27;;;;;;;11.60;3.45;;;;;;;-3.17;79.36;99304.42;1668942;83;25914;-71
2021/01/29 02:39:23;;;;;;;14.33;3.05;;;;;;;-3.16;79.37;99304.41;1679764;82;26837;-72
2021/01/29 02:42:11;;;;;;;12.50;3.65;;;;;;;-3.17;79.35;99307.05;1687231;82;25922;-71
2021/01/29 02:45:00;;;;;;;9.98;3.50;;;;;;;-3.19;79.40;99310.99;1674397;82;27877;-71
2021/01/29 02:47:30;;;;;;;9.70;3.22;;;;;;;-3.17;79.40;99308.36;1691334;82;28609;-71
2021/01/29 02:50:16;;;;;;;9.68;3.50;;;;;;;-3.18;79.40;99316.66;1684326;84;26179;-71
2021/01/29 02:53:10;;;;;;;11.40;3.08;;;;;;;-3.18;79.40;99310.55;1649370;84;26131;-71
2021/01/29 02:55:49;;;;;;;6.67;2.95;;;;;;;-3.18;79.41;99315.80;1718828;82;26066;-71
2021/01/29 02:58:34;;;;;;;12.60;2.95;;;;;;;-3.20;79.40;99316.25;1718530;82;27923;-70
2021/01/29 03:01:13;;;;;;;15.10;3.47;;;;;;;-3.23;79.43;99317.14;1718779;82;26344;-70
2021/01/29 03:03:49;;;;;;;7.08;3.00;;;;;;;-3.24;79.47;99318.47;1718343;82;25702;-70
2021/01/29 03:06:22;;;;;;;9.83;2.87;;;;;;;-3.25;79.48;99320.66;1718481;82;26073;-70
2021/01/29 03:08:58;;;;;;;12.58;3.10;;;;;;;-3.27;79.47;99328.53;1718749;82;25750;-70
2021/01/29 03:11:36;;;;;;;9.58;3.00;;;;;;;-3.29;79.51;99318.06;1694993;82;27621;-70
2021/01/29 03:14:42;;;;;;;14.30;3.42;;;;;;;-3.29;79.57;99327.68;1711106;82;26145;-71
2021/01/29 03:17:24;;;;;;;7.35;3.00;;;;;;;-3.35;79.60;99322.05;1718715;82;25706;-71
2021/01/29 03:20:13;;;;;;;9.28;2.35;;;;;;;-3.28;79.65;99327.67;1718231;82;27017;-72
2021/01/29 03:22:54;;;;;;;13.38;3.80;;;;;;;-3.25;79.70;99329.39;1718753;82;26012;-71
2021/01/29 03:25:33;;;;;;;8.18;3.08;;;;;;;-3.25;79.71;99332.02;1718738;82;28351;-71
2021/01/29 03:28:06;;;;;;;13.00;3.20;;;;;;;-3.25;79.74;99333.32;1718835;82;25705;-70
2021/01/29 03:30:38;;;;;;;9.50;3.35;;;;;;;-3.24;79.76;99332.44;1718774;82;25673;-71
2021/01/29 03:33:11;;;;;;;6.37;3.17;;;;;;;-3.24;79.84;99332.88;1718644;82;26097;-70
2021/01/29 03:35:46;;;;;;;9.13;2.75;;;;;;;-3.23;79.81;99330.69;1718476;82;25730;-71
2021/01/29 03:38:19;;;;;;;6.75;2.75;;;;;;;-3.23;79.82;99335.48;1718555;82;27796;-71
2021/01/29 03:41:07;;;;;;;9.73;3.20;;;;;;;-3.24;79.87;99336.37;1718391;82;25840;-70
2021/01/29 03:43:52;;;;;;;9.15;2.98;;;;;;;-3.23;79.89;99332.87;1710870;82;25698;-71
2021/01/29 03:46:53;;;;;;;8.55;3.40;;;;;;;-3.20;79.92;99324.98;1709174;82;27022;-70
2021/01/29 03:49:44;;;;;;;7.03;2.95;;;;;;;-3.20;79.96;99328.91;1681945;83;26314;-71
2021/01/29 03:52:26;;;;;;;9.05;3.40;;;;;;;-3.36;79.97;99294.12;1686466;83;27869;-70
2021/01/29 03:55:18;;;;;;;6.85;2.70;;;;;;;-3.17;79.93;99324.08;1679771;83;25794;-70
2021/01/29 03:58:19;;;;;;;11.43;2.58;;;;;;;-3.19;79.93;99317.55;1681410;82;25798;-70
2021/01/29 04:01:04;;;;;;;6.93;2.83;;;;;;;-3.19;79.95;99322.78;1679086;82;26144;-70
2021/01/29 04:03:47;;;;;;;10.28;2.70;;;;;;;-3.20;79.97;99313.63;1678062;82;26365;-70
2021/01/29 04:06:25;;;;;;;4.45;2.70;;;;;;;-3.18;79.97;99317.97;1681355;82;27434;-70
2021/01/29 04:09:22;;;;;;;7.10;3.25;;;;;;;-3.17;79.98;99339.36;1685074;82;25976;-70
2021/01/29 04:11:53;;;;;;;4.92;2.75;;;;;;;-3.16;79.91;99324.06;1673274;82;25792;-70
2021/01/29 04:14:35;;;;;;;8.88;3.12;;;;;;;-3.14;79.89;99322.30;1672243;84;26694;-70
2021/01/29 04:17:14;;;;;;;6.72;3.00;;;;;;;-3.12;79.84;99320.98;1680398;84;26433;-70
2021/01/29 04:19:46;;;;;;;11.28;3.47;;;;;;;-3.12;79.82;99320.53;1663597;82;28299;-69
2021/01/29 04:22:24;;;;;;;10.35;2.70;;;;;;;-3.11;79.81;99320.09;1660876;82;26178;-71
2021/01/29 04:25:07;;;;;;;7.90;2.70;;;;;;;-3.11;79.78;99326.20;1657955;82;26471;-69
2021/01/29 04:27:38;;;;;;;7.10;3.25;;;;;;;-3.10;79.79;99319.21;1675169;82;25763;-69
2021/01/29 04:30:19;;;;;;;;;;;;;;;-3.08;79.76;99327.92;1682370;82;25861;-69
2021/01/29 04:32:52;;;;;;;8.78;2.80;;;;;;;-3.07;79.73;99319.18;1682955;82;27466;-70
2021/01/29 04:35:23;;;;;;;7.35;2.92;;;;;;;-3.08;79.71;99321.38;1670267;84;26256;-70
2021/01/29 04:37:59;;;;;;;8.68;2.85;;;;;;;-3.09;79.70;99323.13;1683652;82;25857;-70
2021/01/29 04:40:31;;;;;;;6.58;3.33;;;;;;;-3.08;79.63;99320.06;1675217;82;26273;-70
2021/01/29 04:43:45;;;;;;;7.70;3.12;;;;;;;-3.12;79.62;99316.60;1683104;83;25835;-70
2021/01/29 04:46:53;;;;;;;5.55;3.10;;;;;;;-3.11;79.61;99313.54;1677268;84;28714;-70
2021/01/29 04:49:41;;;;;;;5.62;3.02;;;;;;;-3.12;79.53;99319.22;1676583;84;25879;-70
2021/01/29 04:52:37;;;;;;;8.05;2.83;;;;;;;-3.11;79.56;99313.09;1678539;84;25922;-69
2021/01/29 04:55:39;;;;;;;7.03;2.72;;;;;;;-3.11;79.51;99324.89;1688154;83;26114;-69
2021/01/29 04:58:27;;;;;;;7.55;2.02;;;;;;;-3.12;79.48;99320.53;1680172;84;27363;-69
2021/01/29 05:01:23;;;;;;;4.83;2.27;;;;;;;-3.11;79.42;99305.68;1678367;84;27813;-69
2021/01/29 05:04:02;;;;;;;9.40;3.47;;;;;;;-3.13;79.38;99310.06;1665872;83;25758;-69
2021/01/29 05:07:10;;;;;;;8.40;3.77;;;;;;;-3.14;79.45;99305.27;1646548;82;26066;-69
2021/01/29 05:10:14;;;;;;;8.40;2.92;;;;;;;-3.12;79.46;99302.19;1673555;83;26029;-69
2021/01/29 05:12:50;;;;;;;9.25;3.12;;;;;;;-3.12;79.40;99306.12;1708233;82;25787;-69
2021/01/29 05:15:32;;;;;;;8.43;3.02;;;;;;;-3.13;79.37;99309.63;1675775;82;27720;-70
2021/01/29 05:18:25;;;;;;;7.55;2.75;;;;;;;-3.11;79.40;99305.68;1632402;82;26571;-70
2021/01/29 05:21:20;;;;;;;6.33;3.00;;;;;;;-3.12;79.31;99311.36;1686030;82;25964;-69
2021/01/29 05:24:10;;;;;;;7.87;3.35;;;;;;;-3.14;79.31;99307.89;1656048;82;26853;-69
2021/01/29 05:27:03;;;;;;;7.65;2.85;;;;;;;-3.16;79.33;99293.93;1677000;82;25953;-69
2021/01/29 05:29:53;;;;;;;10.30;2.85;;;;;;;-3.16;79.30;99286.07;1639631;83;27872;-70
2021/01/29 05:33:02;;;;;;;7.05;2.40;;;;;;;-3.20;79.32;99290.91;1669094;82;26165;-69
2021/01/29 05:35:56;;;;;;;5.95;2.70;;;;;;;-3.20;79.36;99293.53;1671062;82;25800;-71
2021/01/29 05:39:02;;;;;;;13.58;3.35;;;;;;;-3.20;79.32;99293.53;1671306;84;26293;-70
2021/01/29 05:41:44;;;;;;;4.87;2.55;;;;;;;-3.21;79.36;99293.11;1668358;82;26034;-68
2021/01/29 05:44:53;;;;;;;19.20;7.10;;;;;;;-3.24;79.31;99301.00;1652677;84;26679;-68
2021/01/29 05:47:58;;;;;;;10.23;4.30;;;;;;;-3.24;79.37;99291.83;1654470;82;26676;-68
2021/01/29 05:51:04;;;;;;;11.43;4.17;;;;;;;-3.21;79.36;99306.20;1677012;82;25874;-68
2021/01/29 05:53:56;;;;;;;16.27;6.00;;;;;;;-3.21;79.38;99288.31;1670408;82;25900;-69
2021/01/29 05:56:55;;;;;;;13.60;5.10;;;;;;;-3.19;79.41;99268.20;1678796;82;26200;-69
2021/01/29 05:59:49;;;;;;;10.78;3.58;;;;;;;-3.18;79.40;99268.63;1669077;82;28025;-68
2021/01/29 06:02:40;;;;;;;11.50;4.50;;;;;;;-3.19;79.42;99273.00;1679812;82;26564;-68
2021/01/29 06:05:50;;;;;;;10.43;4.40;;;;;;;-3.20;79.38;99275.19;1674097;82;25878;-68
2021/01/29 06:08:56;;;;;;;8.40;3.22;;;;;;;-3.21;79.38;99269.52;1673089;84;25693;-73
2021/01/29 06:11:48;;;;;;;8.70;3.62;;;;;;;-3.24;79.41;99265.62;1670927;82;25859;-70
2021/01/29 06:14:59;;;;;;;7.97;3.47;;;;;;;-3.22;79.43;99257.30;1675238;82;27623;-69
2021/01/29 06:17:53;;;;;;;10.53;3.40;;;;;;;-3.23;79.44;99255.57;1672749;82;25812;-70
2021/01/29 06:20:46;;;;;;;10.60;3.00;;;;;;;-3.21;79.46;99252.49;1677401;82;25935;-70
2021/01/29 06:23:48;;;;;;;7.53;3.37;;;;;;;-3.23;79.39;99249.02;1667288;82;26569;-71
2021/01/29 06:26:35;;;;;;;6.95;3.90;;;;;;;-3.24;79.47;99245.97;1672842;84;25832;-70
2021/01/29 06:29:30;;;;;;;9.00;3.47;;;;;;;-3.23;79.48;99245.09;1678098;82;28515;-70
2021/01/29 06:32:29;;;;;;;7.85;3.80;;;;;;;-3.22;79.48;99240.72;1667424;84;26649;-69
2021/01/29 06:35:17;;;;;;;8.98;3.72;;;;;;;-3.23;79.46;99233.30;1672684;84;25897;-70
2021/01/29 06:38:00;;;;;;;15.20;4.58;;;;;;;-3.24;79.46;99226.32;1673097;82;26191;-70
2021/01/29 06:41:02;;;;;;;12.82;5.25;;;;;;;-3.24;79.46;99236.80;1663535;82;25844;-70
2021/01/29 06:44:10;;;;;;;12.80;4.87;;;;;;;-3.32;79.46;99223.78;1672059;82;27351;-70
2021/01/29 06:47:19;;;;;;;10.13;4.97;;;;;;;-3.22;79.48;99227.62;1666186;82;25769;-70
2021/01/29 06:49:56;;;;;;;9.80;4.50;;;;;;;-3.22;79.49;99224.55;1677182;82;25888;-69
2021/01/29 06:52:59;;;;;;;10.58;4.47;;;;;;;-3.22;79.52;99220.62;1651093;82;26315;-70
2021/01/29 06:55:51;;;;;;;11.33;4.33;;;;;;;-3.20;79.53;99216.23;1669518;82;25907;-69
2021/01/29 06:58:55;;;;;;;16.25;4.87;;;;;;;-3.20;79.50;99210.99;1664484;83;26566;-70
2021/01/29 07:01:51;;;;;;;11.43;4.30;;;;;;;-3.23;79.50;99199.23;1664869;83;25830;-70
2021/01/29 07:04:58;;;;;;;13.45;4.50;;;;;;;-3.24;79.54;99200.56;1671400;83;26010;-71
2021/01/29 07:07:57;;;;;;;11.08;4.67;;;;;;;-3.25;79.51;99193.14;1626601;84;26153;-72
2021/01/29 07:10:33;;;;;;;15.15;5.22;;;;;;;-3.28;79.54;99194.05;1679640;82;25843;-70
2021/01/29 07:13:49;;;;;;;18.85;5.60;;;;;;;-3.27;79.61;99194.47;1679573;82;27930;-71
2021/01/29 07:16:50;;;;;;;18.55;5.85;;;;;;;-3.25;79.59;99187.04;1673923;82;26178;-72
2021/01/29 07:19:44;;;;;;;12.47;4.97;;;;;;;-3.23;79.64;99183.52;1672229;82;25873;-70
2021/01/29 07:22:50;;;;;;;12.70;4.87;;;;;;;-3.21;79.63;99186.98;1689923;82;26708;-69
2021/01/29 07:25:59;;;;;;;11.75;4.75;;;;;;;-3.20;79.63;99186.55;1678018;82;25856;-69
2021/01/29 07:29:05;;;;;;;23.52;6.58;;;;;;;-3.19;79.68;99179.11;1686834;82;28514;-68
2021/01/29 07:31:45;;;;;;;20.12;5.53;;;;;;;-3.19;79.63;99177.80;1681373;82;26001;-68
2021/01/29 07:34:31;;;;;;;16.12;5.87;;;;;;;-3.18;79.66;99180.40;1678648;82;25809;-68
2021/01/29 07:37:32;;;;;;;12.98;6.00;;;;;;;-3.18;79.67;99179.09;1684877;82;26458;-69
2021/01/29 07:40:20;;;;;;;11.73;5.35;;;;;;;-3.17;79.71;99180.83;1678783;82;25851;-68
2021/01/29 07:43:16;;;;;;;16.93;7.35;;;;;;;-3.14;79.69;99179.48;1671514;82;27552;-69
2021/01/29 07:46:21;;;;;;;18.32;6.80;;;;;;;-3.12;79.78;99175.09;1676243;82;26585;-71
2021/01/29 07:49:00;;;;;;;21.45;8.73;;;;;;;-3.09;79.75;99172.42;1692701;82;26509;-71
2021/01/29 07:51:48;;;;;;;14.43;6.42;;;;;;;-3.07;79.76;99175.03;1678526;82;26028;-73
2021/01/29 07:54:53;;;;;;;12.93;5.80;;;;;;;-3.04;79.79;99174.55;1687133;82;25770;-70
2021/01/29 07:58:02;;;;;;;18.85;6.35;;;;;;;-3.00;79.78;99164.89;1681579;83;27826;-69
2021/01/29 08:01:07;;;;;;;26.40;6.65;;;;;;;-2.95;79.80;99159.16;1676174;82;27753;-69
2021/01/29 08:04:11;;;;;;;18.57;8.20;;;;;;;-2.95;79.79;99156.09;1680387;82;25942;-69
2021/01/29 08:06:47;;;;;;;26.65;9.68;;;;;;;-2.95;79.81;99159.16;1657725;82;25952;-69
2021/01/29 08:09:24;;;;;;;25.95;10.43;;;;;;;-2.94;79.80;99160.89;1648657;85;25775;-69
2021/01/29 08:11:59;;;;;;;20.70;8.70;;;;;;;-2.90;79.83;99163.03;1694814;81;28200;-70
2021/01/29 08:15:09;;;;;;;31.55;9.60;;;;;;;-2.90;79.82;99158.65;1648406;84;26216;-69
2021/01/29 08:18:17;;;;;;;56.48;17.32;;;;;;;-2.87;79.85;99152.05;1679439;82;27486;-69
2021/01/29 08:21:38;;;;;;;35.85;13.43;;;;;;;-2.83;79.83;99160.75;1688480;82;26093;-68
2021/01/29 08:24:49;;;;;;;32.60;11.95;;;;;;;-2.85;79.82;99163.83;1682758;84;25795;-70
2021/01/29 08:27:54;;;;;;;35.25;12.93;;;;;;;-2.89;79.81;99164.31;1682495;82;26599;-69
2021/01/29 08:31:07;;;;;;;36.15;11.65;;;;;;;-2.90;79.87;99170.45;1682500;82;26199;-69
2021/01/29 08:34:00;;;;;;;30.30;11.78;;;;;;;-2.84;79.92;99160.33;1682925;82;25463;-68
2021/01/29 08:37:19;;;;;;;34.48;10.75;;;;;;;-2.80;79.91;99160.70;1676587;82;26000;-70
2021/01/29 08:40:09;;;;;;;23.83;8.90;;;;;;;-2.81;79.86;99154.59;1678502;82;25775;-69
2021/01/29 08:43:19;;;;;;;29.25;9.48;;;;;;;-2.81;79.89;99154.59;1683122;82;27854;-69
2021/01/29 08:46:17;;;;;;;20.65;7.62;;;;;;;-2.72;80.03;99154.91;1678541;82;26386;-71
2021/01/29 08:49:16;;;;;;;23.60;9.13;;;;;;;-2.66;79.94;99156.14;1678587;82;25925;-71
2021/01/29 08:51:55;;;;;;;27.60;9.60;;;;;;;-2.63;79.99;99160.03;1674373;82;25990;-72
2021/01/29 08:54:49;;;;;;;31.65;9.50;;;;;;;-2.56;79.93;99162.09;1675207;84;25792;-71
2021/01/29 08:57:31;;;;;;;18.73;7.42;;;;;;;-2.52;79.97;99162.47;1693119;82;28435;-71
2021/01/29 09:00:01;;;;;;;24.72;8.43;;;;;;;-2.52;79.89;99167.27;1715485;82;25824;-72
2021/01/29 09:02:57;;;;;;;25.15;9.23;;;;;;;-2.47;79.98;99156.70;1676836;82;25889;-70
2021/01/29 09:05:30;;;;;;;20.75;7.78;;;;;;;-2.38;80.02;99164.00;1678254;83;27825;-71
2021/01/29 09:08:01;;;;;;;18.98;7.83;;;;;;;-2.35;79.96;99162.64;1678748;83;25889;-72
2021/01/29 09:10:58;;;;;;;30.15;9.35;;;;;;;-2.30;79.98;99164.75;1675053;82;28623;-71
2021/01/29 09:13:28;;;;;;;27.55;9.48;;;;;;;-2.23;80.04;99160.27;1674164;82;26173;-71
2021/01/29 09:16:17;;;;;;;25.95;9.55;;;;;;;-2.13;80.05;99159.69;1702285;82;25936;-72
2021/01/29 09:19:08;;;;;;;24.85;8.43;;;;;;;-2.10;79.98;99153.07;1677399;82;25840;-70
2021/01/29 09:22:10;;;;;;;17.60;7.42;;;;;;;-2.03;79.97;99154.70;1678988;82;25895;-71
2021/01/29 09:25:06;;;;;;;16.93;7.15;;;;;;;-2.00;79.88;99152.03;1676991;82;28483;-71
2021/01/29 09:27:58;;;;;;;19.85;8.70;;;;;;;-1.99;79.92;99145.88;1654098;82;26055;-71
2021/01/29 09:30:37;;;;;;;22.45;8.15;;;;;;;-1.96;79.96;99140.58;1683839;83;25862;-72
2021/01/29 09:33:44;;;;;;;24.18;9.00;;;;;;;-1.89;79.91;99140.03;1674410;82;26169;-73
2021/01/29 09:36:36;;;;;;;20.52;7.03;;;;;;;-1.93;79.79;99133.09;1680896;82;25846;-73
2021/01/29 09:39:15;;;;;;;25.02;8.50;;;;;;;-1.92;79.72;99123.88;1675060;83;27647;-72
2021/01/29 09:41:57;;;;;;;30.32;9.40;;;;;;;-1.87;79.81;99127.30;1669861;83;26488;-71
2021/01/29 09:44:40;;;;;;;22.48;9.13;;;;;;;-1.81;79.84;99124.56;1619524;86;26719;-72
2021/01/29 09:47:11;;;;;;;22.75;8.78;;;;;;;-1.77;79.84;99124.92;1617897;85;25962;-72
2021/01/29 09:49:41;;;;;;;24.43;9.13;;;;;;;-1.72;79.87;99123.53;1682045;82;25861;-73
2021/01/29 09:53:03;;;;;;;20.37;9.40;;;;;;;-1.67;79.87;99115.98;1671692;84;27446;-73
2021/01/29 09:55:48;;;;;;;21.90;8.08;;;;;;;-1.58;79.92;99109.69;1676181;82;25978;-71
2021/01/29 09:58:31;;;;;;;17.30;8.63;;;;;;;-1.43;79.89;99107.21;1674150;82;25854;-73
2021/01/29 10:01:17;;;;;;;27.37;9.00;;;;;;;-1.45;79.74;99098.50;1683144;82;26063;-73
2021/01/29 10:04:21;;;;;;;15.03;6.28;;;;;;;-1.44;79.76;99093.66;1688882;82;25926;-73
2021/01/29 10:06:54;;;;;;;16.70;6.33;;;;;;;-1.42;79.75;99089.23;1658342;83;27453;-72
2021/01/29 10:09:39;;;;;;;20.20;7.42;;;;;;;-1.37;79.77;99087.38;1696438;82;25952;-72
2021/01/29 10:12:26;;;;;;;12.82;4.90;;;;;;;-1.36;79.73;99084.72;1687584;82;25971;-72
2021/01/29 10:15:16;;;;;;;18.70;6.50;;;;;;;-1.34;79.60;99088.64;1686806;82;25842;-72
2021/01/29 10:17:58;;;;;;;18.65;7.42;;;;;;;-1.38;79.58;99083.89;1684732;82;26293;-73
2021/01/29 10:20:30;;;;;;;11.10;3.22;;;;;;;-1.34;79.68;99085.56;1694854;82;27842;-73
2021/01/29 10:23:24;;;;;;;20.85;6.08;;;;;;;-1.37;79.46;99083.44;1682658;83;27006;-73
2021/01/29 10:26:21;;;;;;;9.45;4.75;;;;;;;-1.33;79.60;99082.03;1690054;82;26019;-74
2021/01/29 10:29:19;;;;;;;8.38;3.22;;;;;;;-1.26;79.57;99092.42;1682504;82;26099;-73
2021/01/29 10:32:07;;;;;;;8.38;4.15;;;;;;;-1.23;79.39;99089.73;1691078;82;28480;-72
2021/01/29 10:34:39;;;;;;;15.48;5.33;;;;;;;-1.28;79.27;99087.20;1683138;82;28786;-71
2021/01/29 10:37:24;;;;;;;10.68;3.15;;;;;;;-1.31;79.21;99086.81;1684048;82;25964;-69
2021/01/29 10:40:15;;;;;;;6.80;3.42;;;;;;;-1.26;79.30;99081.91;1686913;82;25963;-73
2021/01/29 10:42:59;;;;;;;;;;;;;;;-1.29;78.92;99097.29;1682446;82;25844;-73
2021/01/29 10:45:49;;;;;;;8.65;3.20;;;;;;;-1.39;78.78;99090.48;1682404;83;26055;-71
2021/01/29 10:48:52;;;;;;;11.75;4.95;;;;;;;-1.35;78.90;99085.59;1689057;82;27996;-73
2021/01/29 10:51:41;;;;;;;19.48;5.78;;;;;;;-1.33;78.84;99077.23;1693441;82;25922;-75
2021/01/29 10:54:09;;;;;;;8.58;3.80;;;;;;;-1.26;78.68;99068.31;1691613;82;25986;-71
2021/01/29 10:57:16;;;;;;;12.13;4.12;;;;;;;-1.19;78.68;99065.97;1681009;82;26334;-72
2021/01/29 10:59:54;;;;;;;7.60;3.52;;;;;;;-1.19;78.45;99056.77;1676442;82;25879;-67
2021/01/29 11:02:33;;;;;;;8.08;3.50;;;;;;;-1.18;78.47;99053.25;1680960;83;27356;-70
2021/01/29 11:05:09;;;;;;;8.00;3.27;;;;;;;-1.21;78.31;99051.13;1690542;83;26102;-72
2021/01/29 11:07:42;;;;;;;10.60;4.08;;;;;;;-1.18;78.35;99049.75;1660249;83;25967;-70
2021/01/29 11:10:33;;;;;;;8.00;3.42;;;;;;;-1.12;78.40;99043.91;1701450;82;25965;-72
2021/01/29 11:13:27;;;;;;;9.90;3.62;;;;;;;-1.10;78.29;99036.86;1676908;83;32597;-73
2021/01/29 11:16:04;;;;;;;11.57;4.00;;;;;;;-1.04;78.29;99036.72;1654210;85;27599;-72
2021/01/29 11:18:37;;;;;;;10.25;3.70;;;;;;;-0.95;78.20;99029.08;1691964;82;25826;-71
2021/01/29 11:21:31;;;;;;;12.35;4.22;;;;;;;-0.82;78.36;99030.52;1700223;82;25827;-72
2021/01/29 11:24:18;;;;;;;10.38;4.35;;;;;;;-0.74;78.31;99022.00;1692735;82;26860;-72
2021/01/29 11:27:20;;;;;;;32.25;7.20;;;;;;;-0.68;78.17;99017.91;1685371;82;25883;-72
2021/01/29 11:29:58;;;;;;;11.90;4.15;;;;;;;-0.59;78.19;99023.85;1671415;83;27817;-72
2021/01/29 11:32:34;;;;;;;18.30;5.47;;;;;;;-0.62;77.95;99018.21;1690423;83;25916;-71
2021/01/29 11:35:39;;;;;;;12.37;4.25;;;;;;;-0.69;77.91;99025.84;1688270;83;25924;-71
2021/01/29 11:38:13;;;;;;;9.85;5.22;;;;;;;-0.78;77.76;99032.18;1692911;83;26210;-71
2021/01/29 11:41:07;;;;;;;13.75;4.10;;;;;;;-0.82;77.84;99033.16;1684680;82;25939;-71
2021/01/29 11:44:10;;;;;;;7.87;4.10;;;;;;;-0.81;77.81;99031.39;1681034;82;28097;-71
2021/01/29 11:47:05;;;;;;;10.28;3.70;;;;;;;-0.90;77.51;99027.20;1687305;82;25835;-71
2021/01/29 11:49:55;;;;;;;11.33;4.42;;;;;;;-1.05;77.39;99013.95;1684944;82;25871;-71
2021/01/29 11:52:37;;;;;;;11.53;4.78;;;;;;;-1.11;77.43;99019.35;1679637;82;25852;-71
2021/01/29 11:55:10;;;;;;;11.35;4.65;;;;;;;-1.09;77.41;99007.03;1692905;82;25862;-71
2021/01/29 11:58:02;;;;;;;12.55;5.20;;;;;;;-1.01;77.62;99010.36;1685815;82;27903;-72
2021/01/29 12:00:44;;;;;;;15.58;5.92;;;;;;;-0.89;77.58;99009.66;1685205;82;26641;-72
2021/01/29 12:03:39;;;;;;;15.60;6.03;;;;;;;-0.79;77.61;99008.09;1692536;82;25814;-73
2021/01/29 12:06:23;;;;;;;10.28;4.95;;;;;;;-0.68;77.60;99015.28;1681251;82;26120;-72
2021/01/29 12:09:16;;;;;;;15.98;5.85;;;;;;;-0.65;77.28;99005.13;1688959;82;25859;-71
2021/01/29 12:12:05;;;;;;;14.23;7.30;;;;;;;-0.63;77.45;99004.64;1680940;82;27933;-72
2021/01/29 12:14:56;;;;;;;10.15;5.10;;;;;;;-0.66;77.31;99006.89;1682411;82;26074;-74
2021/01/29 12:17:28;;;;;;;12.03;5.40;;;;;;;-0.66;77.19;99002.95;1682891;82;25955;-74
2021/01/29 12:20:04;;;;;;;12.65;5.80;;;;;;;-0.69;77.33;98993.81;1682928;82;26039;-73
2021/01/29 12:22:49;;;;;;;12.20;5.28;;;;;;;-0.73;77.25;98997.88;1681338;82;26173;-73
2021/01/29 12:25:58;;;;;;;15.03;5.72;;;;;;;-0.75;77.26;99004.48;1683919;83;26259;-74
2021/01/29 12:29:11;;;;;;;12.85;5.40;;;;;;;-0.78;77.16;99008.95;1684280;82;25944;-73
2021/01/29 12:32:11;;;;;;;34.55;14.43;;;;;;;-0.91;77.10;99003.57;1678344;82;25897;-73
2021/01/29 12:34:46;;;;;;;19.90;7.50;;;;;;;-0.92;77.18;99001.84;1740364;80;25779;-71
2021/01/29 12:37:22;;;;;;;12.55;5.75;;;;;;;-1.00;77.03;98996.31;1722967;81;25858;-70
2021/01/29 12:40:07;;;;;;;9.80;4.05;;;;;;;-1.03;77.01;98986.31;1724215;80;27565;-72
2021/01/29 12:42:49;;;;;;;11.03;5.53;;;;;;;-1.07;77.01;98983.34;1677020;82;27164;-72
2021/01/29 12:45:36;;;;;;;16.17;5.08;;;;;;;-1.17;76.97;98985.77;1671008;82;25941;-72
2021/01/29 12:48:41;;;;;;;10.45;4.97;;;;;;;-1.20;77.06;98980.58;1678777;83;25946;-72
2021/01/29 12:51:15;;;;;;;18.70;6.90;;;;;;;-1.16;77.10;98983.55;1698470;82;26273;-70
2021/01/29 12:54:06;;;;;;;13.68;6.05;;;;;;;-1.13;77.08;98976.91;1681028;82;27987;-72
2021/01/29 12:56:48;;;;;;;14.83;6.12;;;;;;;-1.10;77.06;98967.64;1696169;82;25971;-71